sensor_id;sensor_type;location;lat;lon;timestamp;P1;durP1;ratioP1;P2;durP2;ratioP2
7199;SDS011;3641;49.082;8.200;2023-06-26T00:00:59;10.40;;;6.70;;
7199;SDS011;3641;49.082;8.200;2023-06-26T00:03:26;11.38;;;6.53;;
7199;SDS011;3641;49.082;8.200;2023-06-26T00:05:54;11.65;;;6.78;;
7199;SDS011;3641;49.082;8.200;2023-06-26T00:08:25;11.10;;;6.93;;
7199;SDS011;3641;49.082;8.200;2023-06-26T00:10:52;10.60;;;7.20;;
7199;SDS011;3641;49.082;8.200;2023-06-26T00:13:20;9.75;;;6.70;;
7199;SDS011;3641;49.082;8.200;2023-06-26T00:15:47;9.70;;;6.88;;
7199;SDS011;3641;49.082;8.200;2023-06-26T00:18:14;10.15;;;7.55;;
7199;SDS011;3641;49.082;8.200;2023-06-26T00:20:40;11.38;;;7.53;;
7199;SDS011;3641;49.082;8.200;2023-06-26T00:23:07;9.05;;;6.32;;
7199;SDS011;3641;49.082;8.200;2023-06-26T00:25:33;11.35;;;6.68;;
7199;SDS011;3641;49.082;8.200;2023-06-26T00:28:00;10.20;;;6.53;;
7199;SDS011;3641;49.082;8.200;2023-06-26T00:30:28;9.70;;;7.00;;
7199;SDS011;3641;49.082;8.200;2023-06-26T00:32:54;11.10;;;7.43;;
7199;SDS011;3641;49.082;8.200;2023-06-26T00:35:21;10.00;;;7.00;;
7199;SDS011;3641;49.082;8.200;2023-06-26T00:37:47;11.00;;;7.28;;
7199;SDS011;3641;49.082;8.200;2023-06-26T00:40:14;11.43;;;7.43;;
7199;SDS011;3641;49.082;8.200;2023-06-26T00:42:41;11.98;;;6.70;;
7199;SDS011;3641;49.082;8.200;2023-06-26T00:45:07;10.20;;;7.30;;
7199;SDS011;3641;49.082;8.200;2023-06-26T00:47:35;13.25;;;7.70;;
7199;SDS011;3641;49.082;8.200;2023-06-26T00:50:03;10.05;;;7.45;;
7199;SDS011;3641;49.082;8.200;2023-06-26T00:52:30;10.68;;;7.13;;
7199;SDS011;3641;49.082;8.200;2023-06-26T00:54:57;11.10;;;7.55;;
7199;SDS011;3641;49.082;8.200;2023-06-26T00:57:24;10.13;;;7.18;;
7199;SDS011;3641;49.082;8.200;2023-06-26T00:59:51;10.60;;;7.22;;
7199;SDS011;3641;49.082;8.200;2023-06-26T01:02:17;10.40;;;6.80;;
7199;SDS011;3641;49.082;8.200;2023-06-26T01:04:46;10.77;;;7.10;;
7199;SDS011;3641;49.082;8.200;2023-06-26T01:07:14;9.77;;;7.07;;
7199;SDS011;3641;49.082;8.200;2023-06-26T01:09:43;10.05;;;7.47;;
7199;SDS011;3641;49.082;8.200;2023-06-26T01:12:11;10.65;;;7.50;;
7199;SDS011;3641;49.082;8.200;2023-06-26T01:14:38;11.68;;;7.72;;
7199;SDS011;3641;49.082;8.200;2023-06-26T01:17:04;9.82;;;6.80;;
7199;SDS011;3641;49.082;8.200;2023-06-26T01:19:32;9.38;;;6.90;;
7199;SDS011;3641;49.082;8.200;2023-06-26T01:22:02;18.33;;;8.32;;
7199;SDS011;3641;49.082;8.200;2023-06-26T01:24:39;13.88;;;7.78;;
7199;SDS011;3641;49.082;8.200;2023-06-26T01:27:12;10.93;;;7.47;;
7199;SDS011;3641;49.082;8.200;2023-06-26T01:29:40;11.30;;;7.63;;
7199;SDS011;3641;49.082;8.200;2023-06-26T01:32:08;11.60;;;7.93;;
7199;SDS011;3641;49.082;8.200;2023-06-26T01:34:35;9.98;;;7.35;;
7199;SDS011;3641;49.082;8.200;2023-06-26T01:37:02;12.93;;;8.10;;
7199;SDS011;3641;49.082;8.200;2023-06-26T01:39:28;10.82;;;7.55;;
7199;SDS011;3641;49.082;8.200;2023-06-26T01:41:55;10.80;;;7.97;;
7199;SDS011;3641;49.082;8.200;2023-06-26T01:44:25;12.95;;;7.63;;
7199;SDS011;3641;49.082;8.200;2023-06-26T01:46:58;11.40;;;7.85;;
7199;SDS011;3641;49.082;8.200;2023-06-26T01:49:29;11.98;;;7.82;;
7199;SDS011;3641;49.082;8.200;2023-06-26T01:52:03;10.70;;;7.55;;
7199;SDS011;3641;49.082;8.200;2023-06-26T01:54:36;12.73;;;8.25;;
7199;SDS011;3641;49.082;8.200;2023-06-26T01:57:08;11.57;;;8.05;;
7199;SDS011;3641;49.082;8.200;2023-06-26T01:59:37;12.10;;;7.70;;
7199;SDS011;3641;49.082;8.200;2023-06-26T02:02:06;12.38;;;8.10;;
7199;SDS011;3641;49.082;8.200;2023-06-26T02:04:33;12.27;;;7.82;;
7199;SDS011;3641;49.082;8.200;2023-06-26T02:06:59;11.82;;;7.93;;
7199;SDS011;3641;49.082;8.200;2023-06-26T02:09:26;13.52;;;8.68;;
7199;SDS011;3641;49.082;8.200;2023-06-26T02:11:52;12.02;;;7.70;;
7199;SDS011;3641;49.082;8.200;2023-06-26T02:14:19;11.60;;;7.70;;
7199;SDS011;3641;49.082;8.200;2023-06-26T02:16:46;13.05;;;7.72;;
7199;SDS011;3641;49.082;8.200;2023-06-26T02:19:13;14.00;;;8.15;;
7199;SDS011;3641;49.082;8.200;2023-06-26T02:21:46;13.18;;;8.00;;
7199;SDS011;3641;49.082;8.200;2023-06-26T02:24:12;11.18;;;7.97;;
7199;SDS011;3641;49.082;8.200;2023-06-26T02:26:39;11.52;;;7.88;;
7199;SDS011;3641;49.082;8.200;2023-06-26T02:29:05;12.38;;;8.07;;
7199;SDS011;3641;49.082;8.200;2023-06-26T02:31:32;11.30;;;7.68;;
7199;SDS011;3641;49.082;8.200;2023-06-26T02:34:00;13.27;;;8.60;;
7199;SDS011;3641;49.082;8.200;2023-06-26T02:36:26;11.07;;;8.48;;
7199;SDS011;3641;49.082;8.200;2023-06-26T02:38:53;15.30;;;8.88;;
7199;SDS011;3641;49.082;8.200;2023-06-26T02:41:19;13.32;;;8.32;;
7199;SDS011;3641;49.082;8.200;2023-06-26T02:43:45;13.35;;;8.70;;
7199;SDS011;3641;49.082;8.200;2023-06-26T02:46:12;13.45;;;9.18;;
7199;SDS011;3641;49.082;8.200;2023-06-26T02:48:38;12.65;;;8.70;;
7199;SDS011;3641;49.082;8.200;2023-06-26T02:51:07;12.52;;;9.15;;
7199;SDS011;3641;49.082;8.200;2023-06-26T02:53:34;14.55;;;9.23;;
7199;SDS011;3641;49.082;8.200;2023-06-26T02:56:00;13.55;;;8.95;;
7199;SDS011;3641;49.082;8.200;2023-06-26T02:58:27;11.38;;;9.02;;
7199;SDS011;3641;49.082;8.200;2023-06-26T03:00:53;14.07;;;8.82;;
7199;SDS011;3641;49.082;8.200;2023-06-26T03:03:21;12.85;;;8.70;;
7199;SDS011;3641;49.082;8.200;2023-06-26T03:05:47;13.98;;;9.02;;
7199;SDS011;3641;49.082;8.200;2023-06-26T03:08:15;14.73;;;9.13;;
7199;SDS011;3641;49.082;8.200;2023-06-26T03:10:42;13.85;;;8.98;;
7199;SDS011;3641;49.082;8.200;2023-06-26T03:13:08;12.18;;;8.43;;
7199;SDS011;3641;49.082;8.200;2023-06-26T03:15:37;14.05;;;9.50;;
7199;SDS011;3641;49.082;8.200;2023-06-26T03:18:03;13.25;;;8.77;;
7199;SDS011;3641;49.082;8.200;2023-06-26T03:20:30;16.08;;;9.05;;
7199;SDS011;3641;49.082;8.200;2023-06-26T03:22:56;15.77;;;9.52;;
7199;SDS011;3641;49.082;8.200;2023-06-26T03:25:24;14.10;;;9.52;;
7199;SDS011;3641;49.082;8.200;2023-06-26T03:27:51;14.18;;;8.43;;
7199;SDS011;3641;49.082;8.200;2023-06-26T03:30:17;13.73;;;9.10;;
7199;SDS011;3641;49.082;8.200;2023-06-26T03:32:44;13.43;;;9.30;;
7199;SDS011;3641;49.082;8.200;2023-06-26T03:35:10;12.30;;;9.13;;
7199;SDS011;3641;49.082;8.200;2023-06-26T03:37:36;13.00;;;8.95;;
7199;SDS011;3641;49.082;8.200;2023-06-26T03:40:03;16.02;;;8.68;;
7199;SDS011;3641;49.082;8.200;2023-06-26T03:42:32;12.70;;;9.18;;
7199;SDS011;3641;49.082;8.200;2023-06-26T03:44:58;13.82;;;8.95;;
7199;SDS011;3641;49.082;8.200;2023-06-26T03:47:24;15.65;;;8.68;;
7199;SDS011;3641;49.082;8.200;2023-06-26T03:49:51;12.55;;;8.85;;
7199;SDS011;3641;49.082;8.200;2023-06-26T03:52:17;13.95;;;9.02;;
7199;SDS011;3641;49.082;8.200;2023-06-26T03:54:44;14.63;;;9.63;;
7199;SDS011;3641;49.082;8.200;2023-06-26T03:57:10;14.40;;;9.77;;
7199;SDS011;3641;49.082;8.200;2023-06-26T03:59:38;13.80;;;8.90;;
7199;SDS011;3641;49.082;8.200;2023-06-26T04:02:05;13.23;;;9.30;;
7199;SDS011;3641;49.082;8.200;2023-06-26T04:04:32;13.43;;;9.13;;
7199;SDS011;3641;49.082;8.200;2023-06-26T04:06:58;11.60;;;8.65;;
7199;SDS011;3641;49.082;8.200;2023-06-26T04:09:25;11.70;;;8.30;;
7199;SDS011;3641;49.082;8.200;2023-06-26T04:11:51;12.85;;;8.50;;
7199;SDS011;3641;49.082;8.200;2023-06-26T04:14:18;16.40;;;9.00;;
7199;SDS011;3641;49.082;8.200;2023-06-26T04:16:46;14.82;;;8.50;;
7199;SDS011;3641;49.082;8.200;2023-06-26T04:19:12;13.50;;;9.23;;
7199;SDS011;3641;49.082;8.200;2023-06-26T04:21:39;20.00;;;10.27;;
7199;SDS011;3641;49.082;8.200;2023-06-26T04:24:06;12.55;;;9.05;;
7199;SDS011;3641;49.082;8.200;2023-06-26T04:26:32;12.80;;;8.68;;
7199;SDS011;3641;49.082;8.200;2023-06-26T04:28:59;11.38;;;8.55;;
7199;SDS011;3641;49.082;8.200;2023-06-26T04:31:25;15.00;;;8.77;;
7199;SDS011;3641;49.082;8.200;2023-06-26T04:36:23;11.80;;;8.55;;
7199;SDS011;3641;49.082;8.200;2023-06-26T04:38:53;14.18;;;8.75;;
7199;SDS011;3641;49.082;8.200;2023-06-26T04:41:20;13.35;;;9.10;;
7199;SDS011;3641;49.082;8.200;2023-06-26T04:43:47;12.07;;;9.05;;
7199;SDS011;3641;49.082;8.200;2023-06-26T04:46:13;12.80;;;8.35;;
7199;SDS011;3641;49.082;8.200;2023-06-26T04:48:40;15.40;;;8.88;;
7199;SDS011;3641;49.082;8.200;2023-06-26T04:51:06;11.65;;;8.10;;
7199;SDS011;3641;49.082;8.200;2023-06-26T04:53:34;14.82;;;9.20;;
7199;SDS011;3641;49.082;8.200;2023-06-26T04:56:00;9.82;;;7.78;;
7199;SDS011;3641;49.082;8.200;2023-06-26T04:58:27;12.82;;;8.35;;
7199;SDS011;3641;49.082;8.200;2023-06-26T05:00:53;10.57;;;7.68;;
7199;SDS011;3641;49.082;8.200;2023-06-26T05:03:20;13.32;;;7.80;;
7199;SDS011;3641;49.082;8.200;2023-06-26T05:05:48;12.50;;;8.10;;
7199;SDS011;3641;49.082;8.200;2023-06-26T05:08:16;11.85;;;7.88;;
7199;SDS011;3641;49.082;8.200;2023-06-26T05:10:44;11.52;;;7.82;;
7199;SDS011;3641;49.082;8.200;2023-06-26T05:13:11;12.27;;;7.55;;
7199;SDS011;3641;49.082;8.200;2023-06-26T05:15:40;14.13;;;7.95;;
7199;SDS011;3641;49.082;8.200;2023-06-26T05:18:06;11.43;;;7.70;;
7199;SDS011;3641;49.082;8.200;2023-06-26T05:20:33;12.25;;;8.10;;
7199;SDS011;3641;49.082;8.200;2023-06-26T05:23:00;12.10;;;7.93;;
7199;SDS011;3641;49.082;8.200;2023-06-26T05:25:27;14.85;;;8.00;;
7199;SDS011;3641;49.082;8.200;2023-06-26T05:27:57;12.10;;;8.02;;
7199;SDS011;3641;49.082;8.200;2023-06-26T05:30:24;13.48;;;8.43;;
7199;SDS011;3641;49.082;8.200;2023-06-26T05:32:51;12.50;;;8.10;;
7199;SDS011;3641;49.082;8.200;2023-06-26T05:35:18;12.73;;;8.02;;
7199;SDS011;3641;49.082;8.200;2023-06-26T05:37:46;11.48;;;8.30;;
7199;SDS011;3641;49.082;8.200;2023-06-26T05:40:15;10.35;;;7.65;;
7199;SDS011;3641;49.082;8.200;2023-06-26T05:42:42;10.73;;;8.00;;
7199;SDS011;3641;49.082;8.200;2023-06-26T05:45:11;12.80;;;7.78;;
7199;SDS011;3641;49.082;8.200;2023-06-26T05:47:37;12.13;;;8.63;;
7199;SDS011;3641;49.082;8.200;2023-06-26T05:50:04;12.20;;;8.48;;
7199;SDS011;3641;49.082;8.200;2023-06-26T05:52:32;11.75;;;7.80;;
7199;SDS011;3641;49.082;8.200;2023-06-26T05:54:59;13.57;;;8.07;;
7199;SDS011;3641;49.082;8.200;2023-06-26T05:57:26;11.77;;;8.13;;
7199;SDS011;3641;49.082;8.200;2023-06-26T05:59:54;12.50;;;8.50;;
7199;SDS011;3641;49.082;8.200;2023-06-26T06:02:22;11.00;;;7.60;;
7199;SDS011;3641;49.082;8.200;2023-06-26T06:04:49;11.85;;;7.65;;
7199;SDS011;3641;49.082;8.200;2023-06-26T06:07:15;13.73;;;8.02;;
7199;SDS011;3641;49.082;8.200;2023-06-26T06:09:42;13.70;;;8.25;;
7199;SDS011;3641;49.082;8.200;2023-06-26T06:12:08;13.15;;;8.38;;
7199;SDS011;3641;49.082;8.200;2023-06-26T06:14:35;13.45;;;8.05;;
7199;SDS011;3641;49.082;8.200;2023-06-26T06:17:01;12.18;;;7.18;;
7199;SDS011;3641;49.082;8.200;2023-06-26T06:19:29;13.13;;;7.88;;
7199;SDS011;3641;49.082;8.200;2023-06-26T06:21:56;11.60;;;7.60;;
7199;SDS011;3641;49.082;8.200;2023-06-26T06:24:22;11.25;;;8.43;;
7199;SDS011;3641;49.082;8.200;2023-06-26T06:26:49;12.32;;;7.53;;
7199;SDS011;3641;49.082;8.200;2023-06-26T06:29:15;14.52;;;7.60;;
7199;SDS011;3641;49.082;8.200;2023-06-26T06:31:44;12.65;;;7.78;;
7199;SDS011;3641;49.082;8.200;2023-06-26T06:34:10;13.68;;;7.65;;
7199;SDS011;3641;49.082;8.200;2023-06-26T06:36:39;11.88;;;8.05;;
7199;SDS011;3641;49.082;8.200;2023-06-26T06:39:05;9.70;;;6.80;;
7199;SDS011;3641;49.082;8.200;2023-06-26T06:41:32;12.43;;;7.38;;
7199;SDS011;3641;49.082;8.200;2023-06-26T06:43:58;12.60;;;7.50;;
7199;SDS011;3641;49.082;8.200;2023-06-26T06:46:25;11.63;;;7.07;;
7199;SDS011;3641;49.082;8.200;2023-06-26T06:48:52;11.05;;;7.70;;
7199;SDS011;3641;49.082;8.200;2023-06-26T06:51:18;10.77;;;6.93;;
7199;SDS011;3641;49.082;8.200;2023-06-26T06:53:46;11.90;;;7.70;;
7199;SDS011;3641;49.082;8.200;2023-06-26T06:56:13;10.80;;;7.00;;
7199;SDS011;3641;49.082;8.200;2023-06-26T06:58:39;11.32;;;7.13;;
7199;SDS011;3641;49.082;8.200;2023-06-26T07:01:07;10.55;;;6.85;;
7199;SDS011;3641;49.082;8.200;2023-06-26T07:03:34;10.88;;;7.13;;
7199;SDS011;3641;49.082;8.200;2023-06-26T07:06:01;12.40;;;7.32;;
7199;SDS011;3641;49.082;8.200;2023-06-26T07:08:28;13.23;;;7.22;;
7199;SDS011;3641;49.082;8.200;2023-06-26T07:10:56;9.43;;;6.72;;
7199;SDS011;3641;49.082;8.200;2023-06-26T07:13:23;11.63;;;7.20;;
7199;SDS011;3641;49.082;8.200;2023-06-26T07:15:49;10.05;;;7.47;;
7199;SDS011;3641;49.082;8.200;2023-06-26T07:18:16;11.45;;;7.18;;
7199;SDS011;3641;49.082;8.200;2023-06-26T07:20:42;13.02;;;7.40;;
7199;SDS011;3641;49.082;8.200;2023-06-26T07:23:09;9.13;;;6.90;;
7199;SDS011;3641;49.082;8.200;2023-06-26T07:25:36;8.27;;;6.30;;
7199;SDS011;3641;49.082;8.200;2023-06-26T07:28:05;10.05;;;7.22;;
7199;SDS011;3641;49.082;8.200;2023-06-26T07:30:36;9.85;;;6.80;;
7199;SDS011;3641;49.082;8.200;2023-06-26T07:33:03;11.20;;;7.43;;
7199;SDS011;3641;49.082;8.200;2023-06-26T07:35:29;13.68;;;7.32;;
7199;SDS011;3641;49.082;8.200;2023-06-26T07:37:56;10.55;;;7.20;;
7199;SDS011;3641;49.082;8.200;2023-06-26T07:40:22;10.65;;;6.78;;
7199;SDS011;3641;49.082;8.200;2023-06-26T07:42:48;9.88;;;7.18;;
7199;SDS011;3641;49.082;8.200;2023-06-26T07:45:16;10.40;;;6.85;;
7199;SDS011;3641;49.082;8.200;2023-06-26T07:47:43;9.73;;;6.22;;
7199;SDS011;3641;49.082;8.200;2023-06-26T07:50:09;11.68;;;7.07;;
7199;SDS011;3641;49.082;8.200;2023-06-26T07:52:36;9.15;;;7.05;;
7199;SDS011;3641;49.082;8.200;2023-06-26T07:55:03;10.18;;;6.68;;
7199;SDS011;3641;49.082;8.200;2023-06-26T07:57:30;9.48;;;6.72;;
7199;SDS011;3641;49.082;8.200;2023-06-26T07:59:57;9.80;;;7.13;;
7199;SDS011;3641;49.082;8.200;2023-06-26T08:02:25;8.48;;;6.30;;
7199;SDS011;3641;49.082;8.200;2023-06-26T08:04:51;10.00;;;6.60;;
7199;SDS011;3641;49.082;8.200;2023-06-26T08:07:18;10.13;;;6.90;;
7199;SDS011;3641;49.082;8.200;2023-06-26T08:09:44;9.65;;;6.53;;
7199;SDS011;3641;49.082;8.200;2023-06-26T08:12:11;13.10;;;7.38;;
7199;SDS011;3641;49.082;8.200;2023-06-26T08:14:37;10.93;;;6.30;;
7199;SDS011;3641;49.082;8.200;2023-06-26T08:17:04;9.65;;;6.95;;
7199;SDS011;3641;49.082;8.200;2023-06-26T08:19:32;8.57;;;6.75;;
7199;SDS011;3641;49.082;8.200;2023-06-26T08:21:58;9.57;;;7.20;;
7199;SDS011;3641;49.082;8.200;2023-06-26T08:24:24;8.82;;;6.40;;
7199;SDS011;3641;49.082;8.200;2023-06-26T08:26:51;10.70;;;7.05;;
7199;SDS011;3641;49.082;8.200;2023-06-26T08:29:17;10.88;;;6.78;;
7199;SDS011;3641;49.082;8.200;2023-06-26T08:31:44;9.77;;;6.65;;
7199;SDS011;3641;49.082;8.200;2023-06-26T08:34:10;9.00;;;6.55;;
7199;SDS011;3641;49.082;8.200;2023-06-26T08:36:38;10.73;;;6.95;;
7199;SDS011;3641;49.082;8.200;2023-06-26T08:39:04;9.63;;;6.65;;
7199;SDS011;3641;49.082;8.200;2023-06-26T08:41:33;10.88;;;6.55;;
7199;SDS011;3641;49.082;8.200;2023-06-26T08:44:01;8.98;;;6.68;;
7199;SDS011;3641;49.082;8.200;2023-06-26T08:46:28;8.73;;;6.10;;
7199;SDS011;3641;49.082;8.200;2023-06-26T08:48:55;9.20;;;5.75;;
7199;SDS011;3641;49.082;8.200;2023-06-26T08:51:23;8.68;;;5.85;;
7199;SDS011;3641;49.082;8.200;2023-06-26T08:53:55;7.78;;;5.93;;
7199;SDS011;3641;49.082;8.200;2023-06-26T08:56:23;13.63;;;6.60;;
7199;SDS011;3641;49.082;8.200;2023-06-26T08:58:51;8.35;;;5.82;;
7199;SDS011;3641;49.082;8.200;2023-06-26T09:01:18;9.57;;;6.53;;
7199;SDS011;3641;49.082;8.200;2023-06-26T09:03:45;9.00;;;6.07;;
7199;SDS011;3641;49.082;8.200;2023-06-26T09:06:11;10.25;;;5.80;;
7199;SDS011;3641;49.082;8.200;2023-06-26T09:08:37;14.07;;;5.72;;
7199;SDS011;3641;49.082;8.200;2023-06-26T09:11:05;10.05;;;5.97;;
7199;SDS011;3641;49.082;8.200;2023-06-26T09:13:32;8.88;;;5.95;;
7199;SDS011;3641;49.082;8.200;2023-06-26T09:15:59;7.53;;;5.18;;
7199;SDS011;3641;49.082;8.200;2023-06-26T09:18:32;10.00;;;5.82;;
7199;SDS011;3641;49.082;8.200;2023-06-26T09:20:59;9.98;;;6.03;;
7199;SDS011;3641;49.082;8.200;2023-06-26T09:23:27;8.07;;;5.82;;
7199;SDS011;3641;49.082;8.200;2023-06-26T09:25:53;9.45;;;5.72;;
7199;SDS011;3641;49.082;8.200;2023-06-26T09:28:21;9.05;;;6.07;;
7199;SDS011;3641;49.082;8.200;2023-06-26T09:30:48;9.32;;;5.78;;
7199;SDS011;3641;49.082;8.200;2023-06-26T09:33:16;8.35;;;5.95;;
7199;SDS011;3641;49.082;8.200;2023-06-26T09:35:44;8.02;;;6.07;;
7199;SDS011;3641;49.082;8.200;2023-06-26T09:38:11;12.20;;;6.00;;
7199;SDS011;3641;49.082;8.200;2023-06-26T09:40:38;10.35;;;6.25;;
7199;SDS011;3641;49.082;8.200;2023-06-26T09:43:05;13.50;;;5.97;;
7199;SDS011;3641;49.082;8.200;2023-06-26T09:45:33;11.02;;;5.70;;
7199;SDS011;3641;49.082;8.200;2023-06-26T09:48:01;7.57;;;5.72;;
7199;SDS011;3641;49.082;8.200;2023-06-26T09:50:29;7.95;;;5.72;;
7199;SDS011;3641;49.082;8.200;2023-06-26T09:52:58;9.30;;;5.82;;
7199;SDS011;3641;49.082;8.200;2023-06-26T09:55:34;9.55;;;5.85;;
7199;SDS011;3641;49.082;8.200;2023-06-26T09:58:00;10.02;;;6.45;;
7199;SDS011;3641;49.082;8.200;2023-06-26T10:00:29;9.18;;;5.97;;
7199;SDS011;3641;49.082;8.200;2023-06-26T10:02:57;11.20;;;6.25;;
7199;SDS011;3641;49.082;8.200;2023-06-26T10:05:24;10.07;;;6.55;;
7199;SDS011;3641;49.082;8.200;2023-06-26T10:07:50;13.55;;;6.30;;
7199;SDS011;3641;49.082;8.200;2023-06-26T10:10:19;10.45;;;6.07;;
7199;SDS011;3641;49.082;8.200;2023-06-26T10:12:47;11.52;;;6.22;;
7199;SDS011;3641;49.082;8.200;2023-06-26T10:15:17;11.52;;;6.03;;
7199;SDS011;3641;49.082;8.200;2023-06-26T10:17:45;9.75;;;6.00;;
7199;SDS011;3641;49.082;8.200;2023-06-26T10:20:15;9.70;;;5.82;;
7199;SDS011;3641;49.082;8.200;2023-06-26T10:22:43;11.75;;;5.95;;
7199;SDS011;3641;49.082;8.200;2023-06-26T10:25:12;10.43;;;5.97;;
7199;SDS011;3641;49.082;8.200;2023-06-26T10:27:44;9.85;;;5.70;;
7199;SDS011;3641;49.082;8.200;2023-06-26T10:30:14;9.50;;;5.78;;
7199;SDS011;3641;49.082;8.200;2023-06-26T10:32:44;16.38;;;6.43;;
7199;SDS011;3641;49.082;8.200;2023-06-26T10:35:11;15.02;;;5.82;;
7199;SDS011;3641;49.082;8.200;2023-06-26T10:37:44;9.25;;;6.05;;
7199;SDS011;3641;49.082;8.200;2023-06-26T10:40:11;15.05;;;6.07;;
7199;SDS011;3641;49.082;8.200;2023-06-26T10:42:39;10.90;;;5.90;;
7199;SDS011;3641;49.082;8.200;2023-06-26T10:45:09;9.13;;;6.00;;
7199;SDS011;3641;49.082;8.200;2023-06-26T10:47:37;13.02;;;5.65;;
7199;SDS011;3641;49.082;8.200;2023-06-26T10:50:16;12.07;;;5.88;;
7199;SDS011;3641;49.082;8.200;2023-06-26T10:53:08;9.88;;;5.90;;
7199;SDS011;3641;49.082;8.200;2023-06-26T10:55:41;11.15;;;5.85;;
7199;SDS011;3641;49.082;8.200;2023-06-26T11:03:47;7.25;;;4.95;;
7199;SDS011;3641;49.082;8.200;2023-06-26T11:06:17;7.32;;;4.88;;
7199;SDS011;3641;49.082;8.200;2023-06-26T11:08:47;7.38;;;5.10;;
7199;SDS011;3641;49.082;8.200;2023-06-26T11:11:14;9.73;;;5.10;;
7199;SDS011;3641;49.082;8.200;2023-06-26T11:13:41;9.55;;;4.70;;
7199;SDS011;3641;49.082;8.200;2023-06-26T11:16:08;9.63;;;5.10;;
7199;SDS011;3641;49.082;8.200;2023-06-26T11:18:38;9.20;;;4.75;;
7199;SDS011;3641;49.082;8.200;2023-06-26T11:21:05;8.23;;;4.90;;
7199;SDS011;3641;49.082;8.200;2023-06-26T11:23:33;8.38;;;4.90;;
7199;SDS011;3641;49.082;8.200;2023-06-26T11:28:48;6.85;;;4.07;;
7199;SDS011;3641;49.082;8.200;2023-06-26T11:31:25;7.03;;;4.60;;
7199;SDS011;3641;49.082;8.200;2023-06-26T11:33:52;11.52;;;4.50;;
7199;SDS011;3641;49.082;8.200;2023-06-26T11:36:19;10.52;;;4.43;;
7199;SDS011;3641;49.082;8.200;2023-06-26T11:38:52;7.85;;;4.60;;
7199;SDS011;3641;49.082;8.200;2023-06-26T11:41:18;7.18;;;4.13;;
7199;SDS011;3641;49.082;8.200;2023-06-26T11:43:47;6.40;;;4.00;;
7199;SDS011;3641;49.082;8.200;2023-06-26T11:46:15;6.97;;;4.25;;
7199;SDS011;3641;49.082;8.200;2023-06-26T11:48:42;6.32;;;4.13;;
7199;SDS011;3641;49.082;8.200;2023-06-26T11:51:09;6.95;;;4.50;;
7199;SDS011;3641;49.082;8.200;2023-06-26T11:53:38;6.22;;;3.90;;
7199;SDS011;3641;49.082;8.200;2023-06-26T11:56:09;6.93;;;3.85;;
7199;SDS011;3641;49.082;8.200;2023-06-26T12:01:34;7.10;;;3.92;;
7199;SDS011;3641;49.082;8.200;2023-06-26T12:04:03;7.97;;;3.28;;
7199;SDS011;3641;49.082;8.200;2023-06-26T12:06:34;5.90;;;3.75;;
7199;SDS011;3641;49.082;8.200;2023-06-26T12:09:02;9.30;;;4.10;;
7199;SDS011;3641;49.082;8.200;2023-06-26T12:11:31;9.55;;;4.60;;
7199;SDS011;3641;49.082;8.200;2023-06-26T12:13:59;7.53;;;3.85;;
7199;SDS011;3641;49.082;8.200;2023-06-26T12:16:26;6.53;;;3.67;;
7199;SDS011;3641;49.082;8.200;2023-06-26T12:18:58;8.40;;;3.50;;
7199;SDS011;3641;49.082;8.200;2023-06-26T12:21:28;7.18;;;3.90;;
7199;SDS011;3641;49.082;8.200;2023-06-26T12:24:12;5.53;;;3.40;;
7199;SDS011;3641;49.082;8.200;2023-06-26T12:26:41;4.78;;;3.30;;
7199;SDS011;3641;49.082;8.200;2023-06-26T12:29:09;7.10;;;3.55;;
7199;SDS011;3641;49.082;8.200;2023-06-26T12:31:39;8.05;;;3.80;;
7199;SDS011;3641;49.082;8.200;2023-06-26T12:34:10;6.55;;;3.22;;
7199;SDS011;3641;49.082;8.200;2023-06-26T12:36:41;6.63;;;3.33;;
7199;SDS011;3641;49.082;8.200;2023-06-26T12:39:09;6.32;;;3.90;;
7199;SDS011;3641;49.082;8.200;2023-06-26T12:41:43;5.35;;;3.60;;
7199;SDS011;3641;49.082;8.200;2023-06-26T12:44:16;7.78;;;4.25;;
7199;SDS011;3641;49.082;8.200;2023-06-26T12:46:43;8.30;;;4.05;;
7199;SDS011;3641;49.082;8.200;2023-06-26T12:49:13;7.28;;;4.57;;
7199;SDS011;3641;49.082;8.200;2023-06-26T12:51:40;10.00;;;5.38;;
7199;SDS011;3641;49.082;8.200;2023-06-26T12:54:08;11.23;;;5.20;;
7199;SDS011;3641;49.082;8.200;2023-06-26T12:56:34;7.35;;;5.40;;
7199;SDS011;3641;49.082;8.200;2023-06-26T12:59:01;8.70;;;5.60;;
7199;SDS011;3641;49.082;8.200;2023-06-26T13:01:27;11.65;;;6.00;;
7199;SDS011;3641;49.082;8.200;2023-06-26T13:03:54;9.18;;;5.82;;
7199;SDS011;3641;49.082;8.200;2023-06-26T13:06:22;12.30;;;6.47;;
7199;SDS011;3641;49.082;8.200;2023-06-26T13:08:48;9.20;;;5.97;;
7199;SDS011;3641;49.082;8.200;2023-06-26T13:11:14;9.98;;;6.20;;
7199;SDS011;3641;49.082;8.200;2023-06-26T13:13:42;10.55;;;6.60;;
7199;SDS011;3641;49.082;8.200;2023-06-26T13:16:08;11.70;;;7.03;;
7199;SDS011;3641;49.082;8.200;2023-06-26T13:18:35;11.30;;;6.90;;
7199;SDS011;3641;49.082;8.200;2023-06-26T13:21:01;10.00;;;7.40;;
7199;SDS011;3641;49.082;8.200;2023-06-26T13:23:29;18.02;;;8.10;;
7199;SDS011;3641;49.082;8.200;2023-06-26T13:25:56;14.15;;;7.47;;
7199;SDS011;3641;49.082;8.200;2023-06-26T13:28:22;10.80;;;7.03;;
7199;SDS011;3641;49.082;8.200;2023-06-26T13:30:48;12.70;;;6.93;;
7199;SDS011;3641;49.082;8.200;2023-06-26T13:33:15;11.93;;;7.00;;
7199;SDS011;3641;49.082;8.200;2023-06-26T13:35:41;10.63;;;7.53;;
7199;SDS011;3641;49.082;8.200;2023-06-26T13:38:08;11.07;;;7.78;;
7199;SDS011;3641;49.082;8.200;2023-06-26T13:40:36;14.82;;;7.65;;
7199;SDS011;3641;49.082;8.200;2023-06-26T13:43:02;10.85;;;7.95;;
7199;SDS011;3641;49.082;8.200;2023-06-26T13:45:28;12.23;;;7.75;;
7199;SDS011;3641;49.082;8.200;2023-06-26T13:47:55;11.57;;;6.90;;
7199;SDS011;3641;49.082;8.200;2023-06-26T13:50:21;14.20;;;7.13;;
7199;SDS011;3641;49.082;8.200;2023-06-26T13:52:48;11.40;;;6.35;;
7199;SDS011;3641;49.082;8.200;2023-06-26T13:55:14;11.02;;;6.25;;
7199;SDS011;3641;49.082;8.200;2023-06-26T13:57:42;13.50;;;6.97;;
7199;SDS011;3641;49.082;8.200;2023-06-26T14:00:09;12.05;;;7.75;;
7199;SDS011;3641;49.082;8.200;2023-06-26T14:02:37;9.63;;;6.20;;
7199;SDS011;3641;49.082;8.200;2023-06-26T14:05:04;7.93;;;4.18;;
7199;SDS011;3641;49.082;8.200;2023-06-26T14:07:30;8.27;;;5.10;;
7199;SDS011;3641;49.082;8.200;2023-06-26T14:09:57;9.18;;;3.25;;
7199;SDS011;3641;49.082;8.200;2023-06-26T14:12:23;9.10;;;2.92;;
7199;SDS011;3641;49.082;8.200;2023-06-26T14:14:51;6.10;;;2.80;;
7199;SDS011;3641;49.082;8.200;2023-06-26T14:17:18;7.38;;;3.33;;
7199;SDS011;3641;49.082;8.200;2023-06-26T14:19:44;8.27;;;3.13;;
7199;SDS011;3641;49.082;8.200;2023-06-26T14:22:11;7.00;;;2.63;;
7199;SDS011;3641;49.082;8.200;2023-06-26T14:24:38;7.47;;;2.47;;
7199;SDS011;3641;49.082;8.200;2023-06-26T14:27:04;6.50;;;2.45;;
7199;SDS011;3641;49.082;8.200;2023-06-26T14:29:31;4.35;;;2.00;;
7199;SDS011;3641;49.082;8.200;2023-06-26T14:31:59;6.22;;;2.08;;
7199;SDS011;3641;49.082;8.200;2023-06-26T14:34:25;6.72;;;2.30;;
7199;SDS011;3641;49.082;8.200;2023-06-26T14:36:52;10.23;;;2.00;;
7199;SDS011;3641;49.082;8.200;2023-06-26T14:39:18;5.95;;;1.88;;
7199;SDS011;3641;49.082;8.200;2023-06-26T14:41:45;3.20;;;1.48;;
7199;SDS011;3641;49.082;8.200;2023-06-26T14:44:12;7.78;;;1.65;;
7199;SDS011;3641;49.082;8.200;2023-06-26T14:46:39;5.65;;;1.40;;
7199;SDS011;3641;49.082;8.200;2023-06-26T14:49:06;4.38;;;1.58;;
7199;SDS011;3641;49.082;8.200;2023-06-26T14:51:33;3.78;;;1.50;;
7199;SDS011;3641;49.082;8.200;2023-06-26T14:54:00;5.10;;;1.65;;
7199;SDS011;3641;49.082;8.200;2023-06-26T14:56:26;3.15;;;1.30;;
7199;SDS011;3641;49.082;8.200;2023-06-26T14:58:53;3.75;;;1.40;;
7199;SDS011;3641;49.082;8.200;2023-06-26T15:01:20;6.65;;;1.95;;
7199;SDS011;3641;49.082;8.200;2023-06-26T15:03:47;5.88;;;1.60;;
7199;SDS011;3641;49.082;8.200;2023-06-26T15:06:15;4.30;;;1.90;;
7199;SDS011;3641;49.082;8.200;2023-06-26T15:08:42;7.90;;;1.80;;
7199;SDS011;3641;49.082;8.200;2023-06-26T15:11:08;7.38;;;1.98;;
7199;SDS011;3641;49.082;8.200;2023-06-26T15:13:35;4.63;;;1.75;;
7199;SDS011;3641;49.082;8.200;2023-06-26T15:16:01;3.65;;;1.55;;
7199;SDS011;3641;49.082;8.200;2023-06-26T15:18:27;7.03;;;1.60;;
7199;SDS011;3641;49.082;8.200;2023-06-26T15:20:54;2.70;;;1.63;;
7199;SDS011;3641;49.082;8.200;2023-06-26T15:23:22;5.20;;;1.63;;